sensor_id;sensor_type;location;lat;lon;timestamp;pressure;altitude;pressure_sealevel;temperature;humidity
21361;BME280;10839;43.206;23.550;2023-07-28T00:00:44;97191.53;;;19.00;52.18
21361;BME280;10839;43.206;23.550;2023-07-28T00:03:10;97193.69;;;18.98;52.76
21361;BME280;10839;43.206;23.550;2023-07-28T00:05:36;97188.09;;;19.21;51.74
21361;BME280;10839;43.206;23.550;2023-07-28T00:08:02;97186.56;;;19.13;52.32
21361;BME280;10839;43.206;23.550;2023-07-28T00:10:28;97183.06;;;18.68;53.76
21361;BME280;10839;43.206;23.550;2023-07-28T00:12:54;97188.66;;;18.62;53.89
21361;BME280;10839;43.206;23.550;2023-07-28T00:15:19;97181.19;;;18.41;54.92
21361;BME280;10839;43.206;23.550;2023-07-28T00:17:45;97182.38;;;18.45;54.94
21361;BME280;10839;43.206;23.550;2023-07-28T00:20:11;97173.28;;;18.28;55.06
21361;BME280;10839;43.206;23.550;2023-07-28T00:22:37;97173.78;;;18.53;54.61
21361;BME280;10839;43.206;23.550;2023-07-28T00:25:03;97163.38;;;18.50;54.60
21361;BME280;10839;43.206;23.550;2023-07-28T00:27:28;97173.09;;;18.46;54.70
21361;BME280;10839;43.206;23.550;2023-07-28T00:29:54;97177.97;;;18.44;55.04
21361;BME280;10839;43.206;23.550;2023-07-28T00:32:21;97183.66;;;18.03;56.16
21361;BME280;10839;43.206;23.550;2023-07-28T00:34:47;97167.09;;;17.93;56.96
21361;BME280;10839;43.206;23.550;2023-07-28T00:37:13;97171.91;;;17.62;57.82
21361;BME280;10839;43.206;23.550;2023-07-28T00:39:40;97165.75;;;17.55;58.27
21361;BME280;10839;43.206;23.550;2023-07-28T00:42:06;97173.41;;;17.81;57.73
21361;BME280;10839;43.206;23.550;2023-07-28T00:44:32;97183.50;;;17.69;57.85
21361;BME280;10839;43.206;23.550;2023-07-28T00:46:58;97183.72;;;17.79;57.46
21361;BME280;10839;43.206;23.550;2023-07-28T00:49:24;97183.00;;;17.72;57.74
21361;BME280;10839;43.206;23.550;2023-07-28T00:51:51;97183.59;;;17.74;57.99
21361;BME280;10839;43.206;23.550;2023-07-28T00:54:18;97179.19;;;17.73;58.13
21361;BME280;10839;43.206;23.550;2023-07-28T00:56:44;97173.09;;;17.66;58.45
21361;BME280;10839;43.206;23.550;2023-07-28T00:59:11;97183.84;;;17.61;59.05
21361;BME280;10839;43.206;23.550;2023-07-28T01:01:37;97176.13;;;17.58;58.54
21361;BME280;10839;43.206;23.550;2023-07-28T01:04:03;97186.56;;;17.38;59.01
21361;BME280;10839;43.206;23.550;2023-07-28T01:06:47;97202.28;;;17.36;59.29
21361;BME280;10839;43.206;23.550;2023-07-28T01:09:20;97186.91;;;17.53;58.61
21361;BME280;10839;43.206;23.550;2023-07-28T01:11:57;97193.88;;;17.26;59.52
21361;BME280;10839;43.206;23.550;2023-07-28T01:14:23;97185.25;;;17.18;59.91
21361;BME280;10839;43.206;23.550;2023-07-28T01:16:49;97171.53;;;17.36;59.54
21361;BME280;10839;43.206;23.550;2023-07-28T01:19:20;97169.75;;;17.18;59.79
21361;BME280;10839;43.206;23.550;2023-07-28T01:22:39;97168.31;;;17.04;60.19
21361;BME280;10839;43.206;23.550;2023-07-28T01:25:14;97181.31;;;17.25;59.81
21361;BME280;10839;43.206;23.550;2023-07-28T01:27:36;97166.56;;;17.10;60.35
21361;BME280;10839;43.206;23.550;2023-07-28T01:30:03;97171.88;;;17.16;60.46
21361;BME280;10839;43.206;23.550;2023-07-28T01:32:29;97169.53;;;17.08;60.58
21361;BME280;10839;43.206;23.550;2023-07-28T01:34:55;97167.47;;;17.04;60.64
21361;BME280;10839;43.206;23.550;2023-07-28T01:37:21;97159.56;;;17.02;60.28
21361;BME280;10839;43.206;23.550;2023-07-28T01:39:47;97166.19;;;16.95;60.67
21361;BME280;10839;43.206;23.550;2023-07-28T01:42:13;97172.31;;;16.90;61.15
21361;BME280;10839;43.206;23.550;2023-07-28T01:44:38;97168.06;;;16.94;60.96
21361;BME280;10839;43.206;23.550;2023-07-28T01:47:04;97174.88;;;16.85;61.54
21361;BME280;10839;43.206;23.550;2023-07-28T01:49:30;97179.78;;;16.95;60.92
21361;BME280;10839;43.206;23.550;2023-07-28T01:51:56;97173.34;;;16.78;61.33
21361;BME280;10839;43.206;23.550;2023-07-28T01:54:22;97173.50;;;16.94;60.91
21361;BME280;10839;43.206;23.550;2023-07-28T01:56:48;97174.56;;;16.82;61.02
21361;BME280;10839;43.206;23.550;2023-07-28T01:59:16;97183.66;;;16.99;61.02
21361;BME280;10839;43.206;23.550;2023-07-28T02:01:42;97169.47;;;16.85;61.25
21361;BME280;10839;43.206;23.550;2023-07-28T02:04:11;97172.31;;;16.90;61.32
21361;BME280;10839;43.206;23.550;2023-07-28T02:06:37;97173.00;;;16.74;61.56
21361;BME280;10839;43.206;23.550;2023-07-28T02:09:03;97177.69;;;17.20;61.08
21361;BME280;10839;43.206;23.550;2023-07-28T02:11:30;97176.59;;;17.09;61.81
21361;BME280;10839;43.206;23.550;2023-07-28T02:13:56;97172.44;;;16.95;62.75
21361;BME280;10839;43.206;23.550;2023-07-28T02:16:24;97184.53;;;16.28;64.80
21361;BME280;10839;43.206;23.550;2023-07-28T02:18:50;97173.94;;;16.38;66.13
21361;BME280;10839;43.206;23.550;2023-07-28T02:21:15;97188.81;;;16.18;67.34
21361;BME280;10839;43.206;23.550;2023-07-28T02:23:41;97185.09;;;15.83;69.73
21361;BME280;10839;43.206;23.550;2023-07-28T02:26:07;97180.41;;;15.90;70.10
21361;BME280;10839;43.206;23.550;2023-07-28T02:28:33;97189.66;;;16.00;70.00
21361;BME280;10839;43.206;23.550;2023-07-28T02:30:58;97190.56;;;16.42;67.00
21361;BME280;10839;43.206;23.550;2023-07-28T02:33:24;97188.69;;;16.42;66.27
21361;BME280;10839;43.206;23.550;2023-07-28T02:35:50;97190.72;;;16.65;64.02
21361;BME280;10839;43.206;23.550;2023-07-28T02:38:16;97194.97;;;16.43;64.48
21361;BME280;10839;43.206;23.550;2023-07-28T02:40:42;97188.03;;;16.47;65.47
21361;BME280;10839;43.206;23.550;2023-07-28T02:43:08;97188.66;;;16.31;67.55
21361;BME280;10839;43.206;23.550;2023-07-28T02:45:34;97195.75;;;16.14;69.17
21361;BME280;10839;43.206;23.550;2023-07-28T02:47:59;97186.97;;;15.46;72.60
21361;BME280;10839;43.206;23.550;2023-07-28T02:50:25;97205.31;;;15.69;72.77
21361;BME280;10839;43.206;23.550;2023-07-28T02:52:51;97200.75;;;15.63;72.55
21361;BME280;10839;43.206;23.550;2023-07-28T02:55:17;97197.75;;;15.71;71.90
21361;BME280;10839;43.206;23.550;2023-07-28T02:57:43;97212.84;;;15.67;71.27
21361;BME280;10839;43.206;23.550;2023-07-28T03:00:11;97199.34;;;15.78;70.86
21361;BME280;10839;43.206;23.550;2023-07-28T03:02:46;97200.63;;;15.76;71.16
21361;BME280;10839;43.206;23.550;2023-07-28T03:05:12;97205.44;;;15.74;71.49
21361;BME280;10839;43.206;23.550;2023-07-28T03:07:38;97207.56;;;15.54;72.52
21361;BME280;10839;43.206;23.550;2023-07-28T03:10:07;97199.56;;;15.59;72.95
21361;BME280;10839;43.206;23.550;2023-07-28T03:12:35;97194.00;;;15.54;73.26
21361;BME280;10839;43.206;23.550;2023-07-28T03:15:02;97199.47;;;15.22;74.46
21361;BME280;10839;43.206;23.550;2023-07-28T03:17:28;97199.31;;;15.17;75.23
21361;BME280;10839;43.206;23.550;2023-07-28T03:19:54;97202.19;;;15.22;74.86
21361;BME280;10839;43.206;23.550;2023-07-28T03:22:19;97201.88;;;15.30;74.44
21361;BME280;10839;43.206;23.550;2023-07-28T03:24:45;97211.44;;;15.40;74.12
21361;BME280;10839;43.206;23.550;2023-07-28T03:27:12;97201.88;;;15.30;74.16
21361;BME280;10839;43.206;23.550;2023-07-28T03:29:38;97208.16;;;16.10;71.24
21361;BME280;10839;43.206;23.550;2023-07-28T03:32:05;97212.63;;;16.93;67.85
21361;BME280;10839;43.206;23.550;2023-07-28T03:34:30;97212.56;;;17.80;64.35
21361;BME280;10839;43.206;23.550;2023-07-28T03:36:59;97218.25;;;18.70;61.17
21361;BME280;10839;43.206;23.550;2023-07-28T03:39:25;97223.25;;;18.73;58.95
21361;BME280;10839;43.206;23.550;2023-07-28T03:41:50;97217.69;;;18.40;59.75
21361;BME280;10839;43.206;23.550;2023-07-28T03:44:17;97212.72;;;19.09;57.48
21361;BME280;10839;43.206;23.550;2023-07-28T03:46:45;97215.50;;;19.81;55.70
21361;BME280;10839;43.206;23.550;2023-07-28T03:49:11;97208.91;;;20.15;54.01
21361;BME280;10839;43.206;23.550;2023-07-28T03:51:37;97207.75;;;20.33;52.72
21361;BME280;10839;43.206;23.550;2023-07-28T03:54:03;97209.06;;;20.52;52.96
21361;BME280;10839;43.206;23.550;2023-07-28T03:56:28;97205.34;;;21.11;50.55
21361;BME280;10839;43.206;23.550;2023-07-28T03:58:55;97210.06;;;21.52;49.48
21361;BME280;10839;43.206;23.550;2023-07-28T04:01:21;97220.03;;;21.68;48.58
21361;BME280;10839;43.206;23.550;2023-07-28T04:03:47;97225.59;;;22.20;47.89
21361;BME280;10839;43.206;23.550;2023-07-28T04:06:13;97223.75;;;21.52;48.30
21361;BME280;10839;43.206;23.550;2023-07-28T04:08:40;97218.81;;;22.32;47.27
21361;BME280;10839;43.206;23.550;2023-07-28T04:11:05;97218.44;;;22.65;45.31
21361;BME280;10839;43.206;23.550;2023-07-28T04:13:32;97216.59;;;23.11;44.24
21361;BME280;10839;43.206;23.550;2023-07-28T04:15:58;97227.84;;;23.15;45.04
21361;BME280;10839;43.206;23.550;2023-07-28T04:18:24;97224.06;;;23.36;43.33
21361;BME280;10839;43.206;23.550;2023-07-28T04:20:50;97227.53;;;22.24;45.80
21361;BME280;10839;43.206;23.550;2023-07-28T04:23:15;97237.13;;;22.84;44.97
21361;BME280;10839;43.206;23.550;2023-07-28T04:25:41;97228.38;;;23.02;44.22
21361;BME280;10839;43.206;23.550;2023-07-28T04:28:07;97230.06;;;23.23;43.86
21361;BME280;10839;43.206;23.550;2023-07-28T04:30:33;97236.66;;;23.22;44.06
21361;BME280;10839;43.206;23.550;2023-07-28T04:32:59;97230.56;;;24.30;42.16
21361;BME280;10839;43.206;23.550;2023-07-28T04:35:31;97237.13;;;24.44;41.54
21361;BME280;10839;43.206;23.550;2023-07-28T04:38:16;97234.78;;;23.47;42.93
21361;BME280;10839;43.206;23.550;2023-07-28T04:40:50;97225.81;;;24.51;40.05
21361;BME280;10839;43.206;23.550;2023-07-28T04:43:21;97230.06;;;23.93;41.59
21361;BME280;10839;43.206;23.550;2023-07-28T04:45:52;97221.13;;;24.51;40.35
21361;BME280;10839;43.206;23.550;2023-07-28T04:48:20;97230.03;;;24.97;39.36
21361;BME280;10839;43.206;23.550;2023-07-28T04:50:46;97238.94;;;25.22;39.97
21361;BME280;10839;43.206;23.550;2023-07-28T04:53:31;97239.75;;;25.67;39.15
21361;BME280;10839;43.206;23.550;2023-07-28T04:56:20;97244.22;;;27.51;35.73
21361;BME280;10839;43.206;23.550;2023-07-28T04:58:46;97232.84;;;27.53;35.47
21361;BME280;10839;43.206;23.550;2023-07-28T05:01:12;97229.31;;;26.21;36.64
21361;BME280;10839;43.206;23.550;2023-07-28T05:03:39;97226.44;;;25.45;37.94
21361;BME280;10839;43.206;23.550;2023-07-28T05:06:26;97223.44;;;26.98;35.99
21361;BME280;10839;43.206;23.550;2023-07-28T05:08:52;97227.22;;;25.46;37.83
21361;BME280;10839;43.206;23.550;2023-07-28T05:11:25;97222.50;;;26.84;36.45
21361;BME280;10839;43.206;23.550;2023-07-28T05:13:51;97226.94;;;26.38;36.86
21361;BME280;10839;43.206;23.550;2023-07-28T05:16:17;97226.25;;;25.65;37.43
21361;BME280;10839;43.206;23.550;2023-07-28T05:19:18;97224.63;;;26.21;36.83
21361;BME280;10839;43.206;23.550;2023-07-28T05:21:56;97234.47;;;27.73;34.77
21361;BME280;10839;43.206;23.550;2023-07-28T05:24:34;97229.53;;;28.61;33.37
21361;BME280;10839;43.206;23.550;2023-07-28T05:27:00;97227.94;;;30.64;30.83
21361;BME280;10839;43.206;23.550;2023-07-28T05:29:26;97234.63;;;30.54;30.49
21361;BME280;10839;43.206;23.550;2023-07-28T05:31:58;97220.28;;;29.64;30.96
21361;BME280;10839;43.206;23.550;2023-07-28T05:34:33;97226.34;;;28.67;32.33
21361;BME280;10839;43.206;23.550;2023-07-28T05:37:00;97226.97;;;28.51;32.89
21361;BME280;10839;43.206;23.550;2023-07-28T05:39:29;97234.44;;;30.51;31.17
21361;BME280;10839;43.206;23.550;2023-07-28T05:41:55;97233.94;;;29.38;31.73
21361;BME280;10839;43.206;23.550;2023-07-28T05:44:21;97226.66;;;29.64;31.12
21361;BME280;10839;43.206;23.550;2023-07-28T05:46:47;97235.47;;;29.44;31.67
21361;BME280;10839;43.206;23.550;2023-07-28T05:49:15;97226.00;;;28.15;33.86
21361;BME280;10839;43.206;23.550;2023-07-28T05:51:41;97224.94;;;29.55;32.23
21361;BME280;10839;43.206;23.550;2023-07-28T05:54:08;97220.09;;;28.62;33.68
21361;BME280;10839;43.206;23.550;2023-07-28T05:56:34;97211.75;;;29.38;32.15
21361;BME280;10839;43.206;23.550;2023-07-28T05:59:00;97213.78;;;28.97;32.73
21361;BME280;10839;43.206;23.550;2023-07-28T06:01:26;97212.72;;;29.56;32.03
21361;BME280;10839;43.206;23.550;2023-07-28T06:04:21;97214.84;;;31.12;30.56
21361;BME280;10839;43.206;23.550;2023-07-28T06:06:51;97216.69;;;29.41;32.13
21361;BME280;10839;43.206;23.550;2023-07-28T06:09:17;97215.59;;;30.17;31.65
21361;BME280;10839;43.206;23.550;2023-07-28T06:11:44;97207.69;;;30.72;30.55
21361;BME280;10839;43.206;23.550;2023-07-28T06:14:10;97214.19;;;29.97;31.66
21361;BME280;10839;43.206;23.550;2023-07-28T06:16:37;97211.69;;;30.88;29.39
21361;BME280;10839;43.206;23.550;2023-07-28T06:19:03;97211.25;;;28.60;32.96
21361;BME280;10839;43.206;23.550;2023-07-28T06:21:31;97213.13;;;30.38;31.68
21361;BME280;10839;43.206;23.550;2023-07-28T06:23:56;97208.34;;;29.19;31.89
21361;BME280;10839;43.206;23.550;2023-07-28T06:26:23;97192.25;;;29.87;31.05
21361;BME280;10839;43.206;23.550;2023-07-28T06:28:48;97201.50;;;29.39;31.71
21361;BME280;10839;43.206;23.550;2023-07-28T06:31:14;97206.84;;;28.86;32.53
21361;BME280;10839;43.206;23.550;2023-07-28T06:33:41;97200.56;;;28.13;34.20
21361;BME280;10839;43.206;23.550;2023-07-28T06:36:07;97198.09;;;29.06;34.04
21361;BME280;10839;43.206;23.550;2023-07-28T06:38:32;97201.56;;;30.92;31.18
21361;BME280;10839;43.206;23.550;2023-07-28T06:40:58;97196.28;;;29.59;33.02
21361;BME280;10839;43.206;23.550;2023-07-28T06:43:25;97191.56;;;28.48;34.57
21361;BME280;10839;43.206;23.550;2023-07-28T06:45:54;97202.59;;;29.02;34.13
21361;BME280;10839;43.206;23.550;2023-07-28T06:48:20;97189.91;;;28.47;34.82
21361;BME280;10839;43.206;23.550;2023-07-28T06:50:46;97196.03;;;28.17;35.84
21361;BME280;10839;43.206;23.550;2023-07-28T06:53:12;97194.06;;;26.60;38.07
21361;BME280;10839;43.206;23.550;2023-07-28T06:55:38;97196.38;;;26.95;38.44
21361;BME280;10839;43.206;23.550;2023-07-28T06:58:05;97189.59;;;27.25;36.69
21361;BME280;10839;43.206;23.550;2023-07-28T07:00:32;97183.25;;;25.93;39.20
21361;BME280;10839;43.206;23.550;2023-07-28T07:03:00;97191.16;;;26.28;38.72
21361;BME280;10839;43.206;23.550;2023-07-28T07:05:26;97195.34;;;26.91;37.44
21361;BME280;10839;43.206;23.550;2023-07-28T07:07:52;97194.81;;;27.45;36.10
21361;BME280;10839;43.206;23.550;2023-07-28T07:10:20;97202.63;;;28.21;35.05
21361;BME280;10839;43.206;23.550;2023-07-28T07:12:47;97199.84;;;27.89;35.46
21361;BME280;10839;43.206;23.550;2023-07-28T07:15:13;97195.28;;;26.96;37.56
21361;BME280;10839;43.206;23.550;2023-07-28T07:17:39;97205.34;;;27.24;37.35
21361;BME280;10839;43.206;23.550;2023-07-28T07:20:06;97214.00;;;26.99;36.28
21361;BME280;10839;43.206;23.550;2023-07-28T07:22:32;97214.78;;;27.74;34.22
21361;BME280;10839;43.206;23.550;2023-07-28T07:24:58;97206.91;;;28.27;33.80
21361;BME280;10839;43.206;23.550;2023-07-28T07:27:24;97202.56;;;30.18;31.30
21361;BME280;10839;43.206;23.550;2023-07-28T07:29:51;97209.91;;;27.85;34.75
21361;BME280;10839;43.206;23.550;2023-07-28T07:32:17;97215.13;;;26.98;36.38
21361;BME280;10839;43.206;23.550;2023-07-28T07:34:43;97212.06;;;28.20;33.80
21361;BME280;10839;43.206;23.550;2023-07-28T07:37:09;97215.94;;;27.87;34.97
21361;BME280;10839;43.206;23.550;2023-07-28T07:39:35;97202.06;;;27.59;34.85
21361;BME280;10839;43.206;23.550;2023-07-28T07:42:02;97210.72;;;29.92;32.51
21361;BME280;10839;43.206;23.550;2023-07-28T07:44:27;97207.03;;;29.39;33.26
21361;BME280;10839;43.206;23.550;2023-07-28T07:46:55;97205.94;;;28.50;34.73
21361;BME280;10839;43.206;23.550;2023-07-28T07:49:21;97205.72;;;28.60;34.85
21361;BME280;10839;43.206;23.550;2023-07-28T07:51:49;97209.59;;;29.00;33.06
21361;BME280;10839;43.206;23.550;2023-07-28T07:54:14;97205.50;;;27.51;36.44
21361;BME280;10839;43.206;23.550;2023-07-28T07:56:44;97204.06;;;28.86;33.69
21361;BME280;10839;43.206;23.550;2023-07-28T07:59:12;97211.69;;;28.67;33.68
21361;BME280;10839;43.206;23.550;2023-07-28T08:01:39;97207.88;;;28.36;34.31
21361;BME280;10839;43.206;23.550;2023-07-28T08:04:05;97210.34;;;27.92;33.80
21361;BME280;10839;43.206;23.550;2023-07-28T08:06:30;97202.28;;;29.53;33.18
21361;BME280;10839;43.206;23.550;2023-07-28T08:08:56;97212.50;;;28.67;33.45
21361;BME280;10839;43.206;23.550;2023-07-28T08:11:24;97212.22;;;29.18;32.96
21361;BME280;10839;43.206;23.550;2023-07-28T08:13:50;97207.59;;;29.27;33.47
21361;BME280;10839;43.206;23.550;2023-07-28T08:16:16;97211.25;;;30.25;32.43
21361;BME280;10839;43.206;23.550;2023-07-28T08:18:42;97220.34;;;29.50;33.67
21361;BME280;10839;43.206;23.550;2023-07-28T08:21:08;97208.84;;;30.32;32.49
21361;BME280;10839;43.206;23.550;2023-07-28T08:23:34;97212.25;;;31.15;30.38
21361;BME280;10839;43.206;23.550;2023-07-28T08:26:00;97212.91;;;29.59;33.31
21361;BME280;10839;43.206;23.550;2023-07-28T08:28:25;97208.84;;;29.21;33.68
21361;BME280;10839;43.206;23.550;2023-07-28T08:30:55;97215.69;;;28.61;34.20
21361;BME280;10839;43.206;23.550;2023-07-28T08:33:24;97219.66;;;30.42;32.47
21361;BME280;10839;43.206;23.550;2023-07-28T08:35:50;97218.34;;;30.08;32.80
21361;BME280;10839;43.206;23.550;2023-07-28T08:38:16;97208.00;;;30.00;32.81
21361;BME280;10839;43.206;23.550;2023-07-28T08:40:43;97223.28;;;29.89;32.83
21361;BME280;10839;43.206;23.550;2023-07-28T08:43:11;97207.47;;;31.16;31.11
21361;BME280;10839;43.206;23.550;2023-07-28T08:45:37;97206.41;;;29.06;33.03
21361;BME280;10839;43.206;23.550;2023-07-28T08:48:04;97207.44;;;30.51;32.04
21361;BME280;10839;43.206;23.550;2023-07-28T08:50:29;97197.88;;;29.74;32.02
21361;BME280;10839;43.206;23.550;2023-07-28T08:52:59;97209.34;;;29.81;32.44
21361;BME280;10839;43.206;23.550;2023-07-28T08:55:25;97195.97;;;30.36;30.55
21361;BME280;10839;43.206;23.550;2023-07-28T08:57:51;97206.78;;;30.85;30.88
21361;BME280;10839;43.206;23.550;2023-07-28T09:00:17;97191.66;;;31.59;29.69
21361;BME280;10839;43.206;23.550;2023-07-28T09:02:43;97195.38;;;31.12;28.89
21361;BME280;10839;43.206;23.550;2023-07-28T09:05:21;97194.56;;;31.80;28.15
21361;BME280;10839;43.206;23.550;2023-07-28T09:07:49;97183.31;;;31.42;29.00
21361;BME280;10839;43.206;23.550;2023-07-28T09:10:16;97175.81;;;32.23;28.18
21361;BME280;10839;43.206;23.550;2023-07-28T09:12:47;97183.13;;;31.73;27.10
21361;BME280;10839;43.206;23.550;2023-07-28T09:15:14;97174.78;;;31.30;27.28
21361;BME280;10839;43.206;23.550;2023-07-28T09:17:44;97180.53;;;32.39;26.46
21361;BME280;10839;43.206;23.550;2023-07-28T09:20:14;97169.84;;;32.50;26.25
21361;BME280;10839;43.206;23.550;2023-07-28T09:22:42;97169.00;;;32.50;26.43
21361;BME280;10839;43.206;23.550;2023-07-28T09:25:13;97166.59;;;31.25;27.03
21361;BME280;10839;43.206;23.550;2023-07-28T09:27:40;97167.38;;;31.85;26.95
21361;BME280;10839;43.206;23.550;2023-07-28T09:30:06;97163.78;;;30.91;27.67
21361;BME280;10839;43.206;23.550;2023-07-28T09:32:36;97168.09;;;31.57;26.87
21361;BME280;10839;43.206;23.550;2023-07-28T09:35:11;97169.19;;;31.98;27.34
21361;BME280;10839;43.206;23.550;2023-07-28T09:37:40;97157.22;;;30.31;28.68
21361;BME280;10839;43.206;23.550;2023-07-28T09:40:12;97148.38;;;29.67;29.22
21361;BME280;10839;43.206;23.550;2023-07-28T09:42:40;97142.44;;;30.22;29.33
21361;BME280;10839;43.206;23.550;2023-07-28T09:45:06;97141.63;;;29.38;30.13
21361;BME280;10839;43.206;23.550;2023-07-28T09:47:35;97150.47;;;30.23;29.35
21361;BME280;10839;43.206;23.550;2023-07-28T09:50:08;97148.88;;;31.89;27.67
21361;BME280;10839;43.206;23.550;2023-07-28T09:52:37;97147.56;;;31.95;27.91
21361;BME280;10839;43.206;23.550;2023-07-28T09:55:08;97141.75;;;30.47;29.47
21361;BME280;10839;43.206;23.550;2023-07-28T09:57:41;97128.81;;;29.72;30.94
21361;BME280;10839;43.206;23.550;2023-07-28T10:00:11;97134.03;;;31.60;28.54
21361;BME280;10839;43.206;23.550;2023-07-28T10:02:40;97131.13;;;31.39;28.50
21361;BME280;10839;43.206;23.550;2023-07-28T10:05:06;97139.94;;;30.12;29.97
21361;BME280;10839;43.206;23.550;2023-07-28T10:07:35;97124.00;;;29.64;30.97
21361;BME280;10839;43.206;23.550;2023-07-28T10:10:06;97129.34;;;30.14;30.29
21361;BME280;10839;43.206;23.550;2023-07-28T10:12:41;97133.03;;;31.21;29.51
21361;BME280;10839;43.206;23.550;2023-07-28T10:15:12;97135.66;;;31.26;29.42
21361;BME280;10839;43.206;23.550;2023-07-28T10:17:50;97122.69;;;31.73;29.54
21361;BME280;10839;43.206;23.550;2023-07-28T10:20:38;97113.41;;;32.53;28.48
21361;BME280;10839;43.206;23.550;2023-07-28T10:23:14;97116.38;;;30.87;29.65
21361;BME280;10839;43.206;23.550;2023-07-28T10:25:43;97110.34;;;29.98;30.79
21361;BME280;10839;43.206;23.550;2023-07-28T10:28:30;97108.47;;;31.58;30.01
21361;BME280;10839;43.206;23.550;2023-07-28T10:30:58;97113.25;;;31.23;29.62
21361;BME280;10839;43.206;23.550;2023-07-28T10:33:32;97095.13;;;29.65;31.65
21361;BME280;10839;43.206;23.550;2023-07-28T10:35:59;97104.78;;;29.98;31.46
21361;BME280;10839;43.206;23.550;2023-07-28T10:38:35;97093.59;;;30.77;30.55
21361;BME280;10839;43.206;23.550;2023-07-28T10:41:20;97087.56;;;29.57;31.68
21361;BME280;10839;43.206;23.550;2023-07-28T10:43:46;97092.09;;;29.75;31.68
21361;BME280;10839;43.206;23.550;2023-07-28T10:46:15;97087.44;;;29.62;31.66
21361;BME280;10839;43.206;23.550;2023-07-28T10:48:46;97092.00;;;30.28;30.49
21361;BME280;10839;43.206;23.550;2023-07-28T10:51:21;97091.31;;;31.13;30.37
21361;BME280;10839;43.206;23.550;2023-07-28T10:53:55;97090.63;;;30.65;30.38
21361;BME280;10839;43.206;23.550;2023-07-28T10:56:21;97090.28;;;30.58;30.40
21361;BME280;10839;43.206;23.550;2023-07-28T10:58:56;97083.78;;;30.71;30.53
21361;BME280;10839;43.206;23.550;2023-07-28T11:01:30;97077.44;;;30.79;29.98
21361;BME280;10839;43.206;23.550;2023-07-28T11:03:57;97082.69;;;30.89;30.32
21361;BME280;10839;43.206;23.550;2023-07-28T11:06:24;97086.41;;;30.93;29.64
21361;BME280;10839;43.206;23.550;2023-07-28T11:08:50;97073.50;;;30.88;30.62
21361;BME280;10839;43.206;23.550;2023-07-28T11:11:16;97062.56;;;29.49;31.35
21361;BME280;10839;43.206;23.550;2023-07-28T11:13:42;97055.72;;;29.55;31.53
21361;BME280;10839;43.206;23.550;2023-07-28T11:16:08;97056.41;;;29.82;31.67
21361;BME280;10839;43.206;23.550;2023-07-28T11:18:36;97063.50;;;30.62;30.70
21361;BME280;10839;43.206;23.550;2023-07-28T11:21:02;97055.97;;;30.54;31.01
21361;BME280;10839;43.206;23.550;2023-07-28T11:23:28;97059.69;;;29.62;31.52
21361;BME280;10839;43.206;23.550;2023-07-28T11:25:54;97055.84;;;29.72;31.90
21361;BME280;10839;43.206;23.550;2023-07-28T11:28:21;97062.19;;;28.98;32.70
21361;BME280;10839;43.206;23.550;2023-07-28T11:30:47;97056.22;;;29.04;32.57
21361;BME280;10839;43.206;23.550;2023-07-28T11:33:13;97041.09;;;29.10;32.63
21361;BME280;10839;43.206;23.550;2023-07-28T11:35:39;97042.53;;;29.60;32.02
21361;BME280;10839;43.206;23.550;2023-07-28T11:38:06;97038.59;;;29.83;31.72
21361;BME280;10839;43.206;23.550;2023-07-28T11:40:33;97034.59;;;30.06;31.78
21361;BME280;10839;43.206;23.550;2023-07-28T11:43:00;97035.19;;;30.60;31.97
21361;BME280;10839;43.206;23.550;2023-07-28T11:45:26;97032.91;;;30.53;31.46
21361;BME280;10839;43.206;23.550;2023-07-28T11:48:02;97031.44;;;30.39;31.30
21361;BME280;10839;43.206;23.550;2023-07-28T11:50:38;97039.56;;;30.27;31.81
21361;BME280;10839;43.206;23.550;2023-07-28T11:53:05;97029.47;;;30.31;32.23
21361;BME280;10839;43.206;23.550;2023-07-28T11:55:38;97034.41;;;30.51;31.25
21361;BME280;10839;43.206;23.550;2023-07-28T11:58:05;97024.53;;;30.36;31.31
21361;BME280;10839;43.206;23.550;2023-07-28T12:00:34;97036.50;;;30.54;31.42
21361;BME280;10839;43.206;23.550;2023-07-28T12:03:10;97032.75;;;30.50;31.24
21361;BME280;10839;43.206;23.550;2023-07-28T12:05:38;97034.41;;;30.51;31.65
21361;BME280;10839;43.206;23.550;2023-07-28T12:08:04;97029.66;;;30.68;31.81
21361;BME280;10839;43.206;23.550;2023-07-28T12:10:31;97021.38;;;30.12;31.79
21361;BME280;10839;43.206;23.550;2023-07-28T12:13:03;97023.59;;;30.41;31.74
21361;BME280;10839;43.206;23.550;2023-07-28T12:15:30;97027.84;;;30.47;31.40
21361;BME280;10839;43.206;23.550;2023-07-28T12:18:12;97020.91;;;30.19;31.91
21361;BME280;10839;43.206;23.550;2023-07-28T12:20:46;97013.34;;;30.02;31.90
21361;BME280;10839;43.206;23.550;2023-07-28T12:23:20;97015.22;;;30.24;31.98
21361;BME280;10839;43.206;23.550;2023-07-28T12:25:46;97003.91;;;30.12;32.20
21361;BME280;10839;43.206;23.550;2023-07-28T12:28:12;96999.25;;;29.81;32.46
21361;BME280;10839;43.206;23.550;2023-07-28T12:30:38;97006.38;;;30.22;31.92
21361;BME280;10839;43.206;23.550;2023-07-28T12:33:06;96993.69;;;30.29;32.18
21361;BME280;10839;43.206;23.550;2023-07-28T12:35:33;97003.41;;;30.18;31.68
21361;BME280;10839;43.206;23.550;2023-07-28T12:38:05;96994.47;;;30.30;32.35
21361;BME280;10839;43.206;23.550;2023-07-28T12:40:32;96994.34;;;30.26;32.13
21361;BME280;10839;43.206;23.550;2023-07-28T12:43:01;96996.13;;;30.31;32.00
21361;BME280;10839;43.206;23.550;2023-07-28T12:45:27;96977.63;;;30.09;32.01
21361;BME280;10839;43.206;23.550;2023-07-28T12:47:55;96981.09;;;30.32;32.00
21361;BME280;10839;43.206;23.550;2023-07-28T12:50:22;96986.31;;;30.25;32.05
21361;BME280;10839;43.206;23.550;2023-07-28T12:52:49;96977.66;;;30.35;32.02
21361;BME280;10839;43.206;23.550;2023-07-28T12:55:15;96978.81;;;30.51;32.11